sensor_id;sensor_type;location;lat;lon;timestamp;temperature;humidity
56771;DHT22;42641;59.794;17.616;2023-02-01T00:00:24;-2.30;99.90
56771;DHT22;42641;59.794;17.616;2023-02-01T00:02:51;-2.40;99.90
56771;DHT22;42641;59.794;17.616;2023-02-01T00:05:17;-2.50;99.90
56771;DHT22;42641;59.794;17.616;2023-02-01T00:07:47;-2.50;99.90
56771;DHT22;42641;59.794;17.616;2023-02-01T00:10:14;-2.50;99.90
56771;DHT22;42641;59.794;17.616;2023-02-01T00:12:40;-2.50;99.90
56771;DHT22;42641;59.794;17.616;2023-02-01T00:15:07;-2.40;99.90
56771;DHT22;42641;59.794;17.616;2023-02-01T00:17:33;-2.30;99.90
56771;DHT22;42641;59.794;17.616;2023-02-01T00:20:00;-2.20;99.90
56771;DHT22;42641;59.794;17.616;2023-02-01T00:22:26;-2.10;99.90
56771;DHT22;42641;59.794;17.616;2023-02-01T00:24:53;-2.00;99.90
56771;DHT22;42641;59.794;17.616;2023-02-01T00:27:19;-2.00;99.90
56771;DHT22;42641;59.794;17.616;2023-02-01T00:29:47;-1.90;99.90
56771;DHT22;42641;59.794;17.616;2023-02-01T00:32:14;-1.90;99.90
56771;DHT22;42641;59.794;17.616;2023-02-01T00:34:40;-1.90;99.90
56771;DHT22;42641;59.794;17.616;2023-02-01T00:37:07;-1.80;99.90
56771;DHT22;42641;59.794;17.616;2023-02-01T00:39:33;-1.80;99.90
56771;DHT22;42641;59.794;17.616;2023-02-01T00:42:00;-1.80;99.90
56771;DHT22;42641;59.794;17.616;2023-02-01T00:44:28;-1.70;99.90
56771;DHT22;42641;59.794;17.616;2023-02-01T00:46:54;-1.60;99.90
56771;DHT22;42641;59.794;17.616;2023-02-01T00:49:20;-1.70;99.90
56771;DHT22;42641;59.794;17.616;2023-02-01T00:51:47;-1.70;99.90
56771;DHT22;42641;59.794;17.616;2023-02-01T00:54:14;-1.70;99.90
56771;DHT22;42641;59.794;17.616;2023-02-01T00:56:40;-1.60;99.90
56771;DHT22;42641;59.794;17.616;2023-02-01T00:59:10;-1.60;99.90
56771;DHT22;42641;59.794;17.616;2023-02-01T01:01:37;-1.60;99.90
56771;DHT22;42641;59.794;17.616;2023-02-01T01:04:04;-1.50;99.90
56771;DHT22;42641;59.794;17.616;2023-02-01T01:06:32;-1.40;99.90
56771;DHT22;42641;59.794;17.616;2023-02-01T01:09:01;-1.30;99.90
56771;DHT22;42641;59.794;17.616;2023-02-01T01:11:31;-1.30;99.90
56771;DHT22;42641;59.794;17.616;2023-02-01T01:13:59;-1.20;99.90
56771;DHT22;42641;59.794;17.616;2023-02-01T01:16:28;-1.20;99.90
56771;DHT22;42641;59.794;17.616;2023-02-01T01:18:57;-1.20;99.90
56771;DHT22;42641;59.794;17.616;2023-02-01T01:21:23;-1.20;99.90
56771;DHT22;42641;59.794;17.616;2023-02-01T01:23:50;-1.20;99.90
56771;DHT22;42641;59.794;17.616;2023-02-01T01:26:19;-1.10;99.90
56771;DHT22;42641;59.794;17.616;2023-02-01T01:28:46;-1.20;99.90
56771;DHT22;42641;59.794;17.616;2023-02-01T01:31:15;-1.20;99.90
56771;DHT22;42641;59.794;17.616;2023-02-01T01:33:42;-1.20;99.90
56771;DHT22;42641;59.794;17.616;2023-02-01T01:36:11;-1.10;99.90
56771;DHT22;42641;59.794;17.616;2023-02-01T01:38:39;-1.10;99.90
56771;DHT22;42641;59.794;17.616;2023-02-01T01:41:07;-1.20;99.90
56771;DHT22;42641;59.794;17.616;2023-02-01T01:43:49;-1.20;99.90
56771;DHT22;42641;59.794;17.616;2023-02-01T01:46:19;-1.20;99.90
56771;DHT22;42641;59.794;17.616;2023-02-01T01:48:50;-1.20;99.90
56771;DHT22;42641;59.794;17.616;2023-02-01T01:51:21;-1.20;99.90
56771;DHT22;42641;59.794;17.616;2023-02-01T01:53:58;-1.20;99.90
56771;DHT22;42641;59.794;17.616;2023-02-01T01:56:26;-1.20;99.90
56771;DHT22;42641;59.794;17.616;2023-02-01T01:58:54;-1.20;99.90
56771;DHT22;42641;59.794;17.616;2023-02-01T02:01:21;-1.20;99.90
56771;DHT22;42641;59.794;17.616;2023-02-01T02:03:48;-1.20;99.90
56771;DHT22;42641;59.794;17.616;2023-02-01T02:06:37;-1.10;99.90
56771;DHT22;42641;59.794;17.616;2023-02-01T02:09:05;-1.10;99.90
56771;DHT22;42641;59.794;17.616;2023-02-01T02:11:33;-1.10;99.90
56771;DHT22;42641;59.794;17.616;2023-02-01T02:14:00;-1.10;99.90
56771;DHT22;42641;59.794;17.616;2023-02-01T02:35:54;-1.10;99.90
56771;DHT22;42641;59.794;17.616;2023-02-01T02:38:33;-1.10;99.90
56771;DHT22;42641;59.794;17.616;2023-02-01T02:41:26;-1.10;99.90
56771;DHT22;42641;59.794;17.616;2023-02-01T02:53:08;-0.90;99.90
56771;DHT22;42641;59.794;17.616;2023-02-01T02:55:56;-0.90;99.90
56771;DHT22;42641;59.794;17.616;2023-02-01T02:58:43;-1.00;99.90
56771;DHT22;42641;59.794;17.616;2023-02-01T03:01:29;-1.00;99.90
56771;DHT22;42641;59.794;17.616;2023-02-01T03:04:14;-1.10;99.90
56771;DHT22;42641;59.794;17.616;2023-02-01T03:06:45;-1.10;99.90
56771;DHT22;42641;59.794;17.616;2023-02-01T03:09:35;-1.10;99.90
56771;DHT22;42641;59.794;17.616;2023-02-01T03:12:09;-1.10;99.90
56771;DHT22;42641;59.794;17.616;2023-02-01T03:15:00;-1.10;99.90
56771;DHT22;42641;59.794;17.616;2023-02-01T03:17:33;-1.00;99.90
56771;DHT22;42641;59.794;17.616;2023-02-01T03:20:02;-0.90;99.90
56771;DHT22;42641;59.794;17.616;2023-02-01T03:22:30;-0.90;99.90
56771;DHT22;42641;59.794;17.616;2023-02-01T03:25:15;-0.90;99.90
56771;DHT22;42641;59.794;17.616;2023-02-01T03:28:05;-0.80;99.90
56771;DHT22;42641;59.794;17.616;2023-02-01T03:30:38;-0.80;99.90
56771;DHT22;42641;59.794;17.616;2023-02-01T03:33:11;-0.70;99.90
56771;DHT22;42641;59.794;17.616;2023-02-01T03:36:03;-0.70;99.90
56771;DHT22;42641;59.794;17.616;2023-02-01T03:41:37;-0.70;99.90
56771;DHT22;42641;59.794;17.616;2023-02-01T03:44:48;-0.70;99.90
56771;DHT22;42641;59.794;17.616;2023-02-01T03:47:19;-0.80;99.90
56771;DHT22;42641;59.794;17.616;2023-02-01T03:49:55;-0.80;99.90
56771;DHT22;42641;59.794;17.616;2023-02-01T03:52:44;-0.80;99.90
56771;DHT22;42641;59.794;17.616;2023-02-01T03:55:16;-0.70;99.90
56771;DHT22;42641;59.794;17.616;2023-02-01T03:57:48;-0.70;99.90
56771;DHT22;42641;59.794;17.616;2023-02-01T04:00:20;-0.60;99.90
56771;DHT22;42641;59.794;17.616;2023-02-01T04:02:51;-0.60;99.90
56771;DHT22;42641;59.794;17.616;2023-02-01T04:05:18;-0.50;99.90
56771;DHT22;42641;59.794;17.616;2023-02-01T04:07:54;-0.50;99.90
56771;DHT22;42641;59.794;17.616;2023-02-01T04:10:20;-0.50;99.90
56771;DHT22;42641;59.794;17.616;2023-02-01T04:12:47;-0.50;99.90
56771;DHT22;42641;59.794;17.616;2023-02-01T04:15:13;-0.50;99.90
56771;DHT22;42641;59.794;17.616;2023-02-01T04:17:39;-0.50;99.90
56771;DHT22;42641;59.794;17.616;2023-02-01T04:20:06;-0.40;99.90
56771;DHT22;42641;59.794;17.616;2023-02-01T04:22:35;-0.40;99.90
56771;DHT22;42641;59.794;17.616;2023-02-01T04:25:02;-0.40;99.90
56771;DHT22;42641;59.794;17.616;2023-02-01T04:27:29;-0.40;99.90
56771;DHT22;42641;59.794;17.616;2023-02-01T04:29:55;-0.40;99.90
56771;DHT22;42641;59.794;17.616;2023-02-01T04:32:22;-0.40;99.90
56771;DHT22;42641;59.794;17.616;2023-02-01T04:34:48;-0.40;99.90
56771;DHT22;42641;59.794;17.616;2023-02-01T04:37:15;-0.30;99.90
56771;DHT22;42641;59.794;17.616;2023-02-01T04:39:41;-0.30;99.90
56771;DHT22;42641;59.794;17.616;2023-02-01T04:42:07;-0.30;99.90
56771;DHT22;42641;59.794;17.616;2023-02-01T04:44:34;-0.20;99.90
56771;DHT22;42641;59.794;17.616;2023-02-01T04:47:02;-0.20;99.90
56771;DHT22;42641;59.794;17.616;2023-02-01T04:49:29;-0.20;99.90
56771;DHT22;42641;59.794;17.616;2023-02-01T04:51:55;-0.10;99.90
56771;DHT22;42641;59.794;17.616;2023-02-01T04:54:22;-0.10;99.90
56771;DHT22;42641;59.794;17.616;2023-02-01T04:56:48;-0.10;99.90
56771;DHT22;42641;59.794;17.616;2023-02-01T04:59:17;-0.20;99.90
56771;DHT22;42641;59.794;17.616;2023-02-01T05:01:43;-0.20;99.90
56771;DHT22;42641;59.794;17.616;2023-02-01T05:04:09;-0.10;99.90
56771;DHT22;42641;59.794;17.616;2023-02-01T05:06:36;-0.10;99.90
56771;DHT22;42641;59.794;17.616;2023-02-01T05:09:02;-0.10;99.90
56771;DHT22;42641;59.794;17.616;2023-02-01T05:11:29;-0.10;99.90
56771;DHT22;42641;59.794;17.616;2023-02-01T05:14:14;-0.10;99.90
56771;DHT22;42641;59.794;17.616;2023-02-01T05:16:40;0.00;99.90
56771;DHT22;42641;59.794;17.616;2023-02-01T05:19:06;0.00;99.90
56771;DHT22;42641;59.794;17.616;2023-02-01T05:21:33;0.00;99.90
56771;DHT22;42641;59.794;17.616;2023-02-01T05:23:59;0.10;99.90
56771;DHT22;42641;59.794;17.616;2023-02-01T05:26:49;0.10;99.90
56771;DHT22;42641;59.794;17.616;2023-02-01T05:29:16;0.10;99.90
56771;DHT22;42641;59.794;17.616;2023-02-01T05:31:47;0.10;99.90
56771;DHT22;42641;59.794;17.616;2023-02-01T05:34:14;0.10;99.90
56771;DHT22;42641;59.794;17.616;2023-02-01T05:36:43;0.10;99.90
56771;DHT22;42641;59.794;17.616;2023-02-01T05:39:09;0.00;99.90
56771;DHT22;42641;59.794;17.616;2023-02-01T05:41:36;0.00;99.90
56771;DHT22;42641;59.794;17.616;2023-02-01T05:44:03;0.00;99.90
56771;DHT22;42641;59.794;17.616;2023-02-01T05:46:29;0.00;99.90
56771;DHT22;42641;59.794;17.616;2023-02-01T05:48:56;0.00;99.90
56771;DHT22;42641;59.794;17.616;2023-02-01T05:51:22;0.00;99.90
56771;DHT22;42641;59.794;17.616;2023-02-01T05:53:49;0.00;99.90
56771;DHT22;42641;59.794;17.616;2023-02-01T05:56:15;0.00;99.90
56771;DHT22;42641;59.794;17.616;2023-02-01T05:58:41;-0.10;99.90
56771;DHT22;42641;59.794;17.616;2023-02-01T06:01:08;-0.10;99.90
56771;DHT22;42641;59.794;17.616;2023-02-01T06:03:34;-0.10;99.90
56771;DHT22;42641;59.794;17.616;2023-02-01T06:06:01;-0.10;99.90
56771;DHT22;42641;59.794;17.616;2023-02-01T06:08:28;0.00;99.90
56771;DHT22;42641;59.794;17.616;2023-02-01T06:11:02;-0.10;99.90
56771;DHT22;42641;59.794;17.616;2023-02-01T06:13:30;-0.10;99.90
56771;DHT22;42641;59.794;17.616;2023-02-01T06:15:57;-0.20;99.90
56771;DHT22;42641;59.794;17.616;2023-02-01T06:18:24;-0.20;99.90
56771;DHT22;42641;59.794;17.616;2023-02-01T06:20:58;-0.10;99.90
56771;DHT22;42641;59.794;17.616;2023-02-01T06:23:27;-0.20;99.90
56771;DHT22;42641;59.794;17.616;2023-02-01T06:26:02;-0.10;99.90
56771;DHT22;42641;59.794;17.616;2023-02-01T06:28:30;-0.10;99.90
56771;DHT22;42641;59.794;17.616;2023-02-01T06:30:57;-0.10;99.90
56771;DHT22;42641;59.794;17.616;2023-02-01T06:33:25;-0.20;99.90
56771;DHT22;42641;59.794;17.616;2023-02-01T06:35:59;-0.20;99.90
56771;DHT22;42641;59.794;17.616;2023-02-01T06:38:26;-0.20;99.90
56771;DHT22;42641;59.794;17.616;2023-02-01T06:40:54;-0.20;99.90
56771;DHT22;42641;59.794;17.616;2023-02-01T06:43:25;-0.10;99.90
56771;DHT22;42641;59.794;17.616;2023-02-01T06:45:52;-0.10;99.90
56771;DHT22;42641;59.794;17.616;2023-02-01T06:48:19;0.00;99.90
56771;DHT22;42641;59.794;17.616;2023-02-01T06:50:45;0.00;99.90
56771;DHT22;42641;59.794;17.616;2023-02-01T06:53:12;0.00;99.90
56771;DHT22;42641;59.794;17.616;2023-02-01T06:55:38;0.10;99.90
56771;DHT22;42641;59.794;17.616;2023-02-01T06:58:04;0.00;99.90
56771;DHT22;42641;59.794;17.616;2023-02-01T07:00:31;0.00;99.90
56771;DHT22;42641;59.794;17.616;2023-02-01T07:02:58;0.00;99.90
56771;DHT22;42641;59.794;17.616;2023-02-01T07:05:25;0.00;99.90
56771;DHT22;42641;59.794;17.616;2023-02-01T07:07:52;0.00;99.90
56771;DHT22;42641;59.794;17.616;2023-02-01T07:10:18;0.00;99.90
56771;DHT22;42641;59.794;17.616;2023-02-01T07:12:45;-0.10;99.90
56771;DHT22;42641;59.794;17.616;2023-02-01T07:15:11;0.00;99.90
56771;DHT22;42641;59.794;17.616;2023-02-01T07:17:37;0.00;99.90
56771;DHT22;42641;59.794;17.616;2023-02-01T07:20:04;0.00;99.90
56771;DHT22;42641;59.794;17.616;2023-02-01T07:22:31;-0.10;99.90
56771;DHT22;42641;59.794;17.616;2023-02-01T07:24:57;-0.20;99.90
56771;DHT22;42641;59.794;17.616;2023-02-01T07:27:23;-0.20;99.90
56771;DHT22;42641;59.794;17.616;2023-02-01T07:29:51;-0.10;99.90
56771;DHT22;42641;59.794;17.616;2023-02-01T07:32:18;-0.10;99.90
56771;DHT22;42641;59.794;17.616;2023-02-01T07:34:45;-0.10;99.90
56771;DHT22;42641;59.794;17.616;2023-02-01T07:37:11;-0.10;99.90
56771;DHT22;42641;59.794;17.616;2023-02-01T07:39:38;-0.10;99.90
56771;DHT22;42641;59.794;17.616;2023-02-01T07:42:04;-0.10;99.90
56771;DHT22;42641;59.794;17.616;2023-02-01T07:44:31;0.00;99.90
56771;DHT22;42641;59.794;17.616;2023-02-01T07:46:58;0.00;99.90
56771;DHT22;42641;59.794;17.616;2023-02-01T07:49:24;0.00;99.90
56771;DHT22;42641;59.794;17.616;2023-02-01T07:51:50;0.00;99.90
56771;DHT22;42641;59.794;17.616;2023-02-01T07:54:17;0.00;99.90
56771;DHT22;42641;59.794;17.616;2023-02-01T07:56:43;0.00;99.90
56771;DHT22;42641;59.794;17.616;2023-02-01T07:59:09;-0.10;99.90
56771;DHT22;42641;59.794;17.616;2023-02-01T08:01:37;-0.20;99.90
56771;DHT22;42641;59.794;17.616;2023-02-01T08:04:04;-0.20;99.90
56771;DHT22;42641;59.794;17.616;2023-02-01T08:06:33;-0.20;99.90
56771;DHT22;42641;59.794;17.616;2023-02-01T08:09:01;-0.20;99.90
56771;DHT22;42641;59.794;17.616;2023-02-01T08:11:28;-0.10;99.90
56771;DHT22;42641;59.794;17.616;2023-02-01T08:13:55;-0.10;99.90
56771;DHT22;42641;59.794;17.616;2023-02-01T08:16:23;-0.10;99.90
56771;DHT22;42641;59.794;17.616;2023-02-01T08:18:49;-0.10;99.90
56771;DHT22;42641;59.794;17.616;2023-02-01T08:21:19;-0.10;99.90
56771;DHT22;42641;59.794;17.616;2023-02-01T08:23:46;-0.10;99.90
56771;DHT22;42641;59.794;17.616;2023-02-01T08:26:21;0.00;99.90
56771;DHT22;42641;59.794;17.616;2023-02-01T08:28:50;0.00;99.90
56771;DHT22;42641;59.794;17.616;2023-02-01T08:31:19;0.10;99.90
56771;DHT22;42641;59.794;17.616;2023-02-01T08:33:52;0.10;99.90
56771;DHT22;42641;59.794;17.616;2023-02-01T08:36:19;0.20;99.90
56771;DHT22;42641;59.794;17.616;2023-02-01T08:38:46;0.20;99.90
56771;DHT22;42641;59.794;17.616;2023-02-01T08:41:15;0.10;99.90
56771;DHT22;42641;59.794;17.616;2023-02-01T08:43:43;0.10;99.90
56771;DHT22;42641;59.794;17.616;2023-02-01T08:46:10;0.00;99.90
56771;DHT22;42641;59.794;17.616;2023-02-01T08:48:38;-0.10;99.90
56771;DHT22;42641;59.794;17.616;2023-02-01T08:51:06;-0.20;99.90
56771;DHT22;42641;59.794;17.616;2023-02-01T08:53:33;-0.20;99.90
56771;DHT22;42641;59.794;17.616;2023-02-01T08:56:00;-0.10;99.90
56771;DHT22;42641;59.794;17.616;2023-02-01T08:58:26;-0.10;99.90
56771;DHT22;42641;59.794;17.616;2023-02-01T09:00:53;0.00;99.90
56771;DHT22;42641;59.794;17.616;2023-02-01T09:03:19;-0.10;99.90
56771;DHT22;42641;59.794;17.616;2023-02-01T09:05:46;0.00;99.90
56771;DHT22;42641;59.794;17.616;2023-02-01T09:08:13;0.10;99.90
56771;DHT22;42641;59.794;17.616;2023-02-01T09:10:41;0.10;99.90
56771;DHT22;42641;59.794;17.616;2023-02-01T09:13:08;0.10;99.90
56771;DHT22;42641;59.794;17.616;2023-02-01T09:15:35;0.10;99.90
56771;DHT22;42641;59.794;17.616;2023-02-01T09:18:02;0.20;99.90
56771;DHT22;42641;59.794;17.616;2023-02-01T09:20:29;0.20;99.90
56771;DHT22;42641;59.794;17.616;2023-02-01T09:22:55;0.20;99.90
56771;DHT22;42641;59.794;17.616;2023-02-01T09:25:22;0.20;99.90
56771;DHT22;42641;59.794;17.616;2023-02-01T09:27:48;0.20;99.90
56771;DHT22;42641;59.794;17.616;2023-02-01T09:30:15;0.30;99.90
56771;DHT22;42641;59.794;17.616;2023-02-01T09:32:41;0.30;99.90
56771;DHT22;42641;59.794;17.616;2023-02-01T09:35:08;0.40;99.90
56771;DHT22;42641;59.794;17.616;2023-02-01T09:37:34;0.50;99.90
56771;DHT22;42641;59.794;17.616;2023-02-01T09:40:02;0.50;99.90
56771;DHT22;42641;59.794;17.616;2023-02-01T09:45:48;0.60;99.90
56771;DHT22;42641;59.794;17.616;2023-02-01T09:48:20;0.70;99.90
56771;DHT22;42641;59.794;17.616;2023-02-01T09:50:53;0.70;99.90
56771;DHT22;42641;59.794;17.616;2023-02-01T09:53:32;0.70;99.90
56771;DHT22;42641;59.794;17.616;2023-02-01T09:56:18;0.60;99.90
56771;DHT22;42641;59.794;17.616;2023-02-01T10:01:54;0.50;99.90
56771;DHT22;42641;59.794;17.616;2023-02-01T10:04:21;0.50;99.90
56771;DHT22;42641;59.794;17.616;2023-02-01T10:09:40;0.60;99.90
56771;DHT22;42641;59.794;17.616;2023-02-01T10:18:07;0.50;99.90
56771;DHT22;42641;59.794;17.616;2023-02-01T10:28:52;0.50;99.90
56771;DHT22;42641;59.794;17.616;2023-02-01T10:31:21;0.60;99.90
56771;DHT22;42641;59.794;17.616;2023-02-01T10:33:55;0.70;99.90
56771;DHT22;42641;59.794;17.616;2023-02-01T10:36:29;0.70;99.90
56771;DHT22;42641;59.794;17.616;2023-02-01T10:39:00;0.60;99.90
56771;DHT22;42641;59.794;17.616;2023-02-01T10:41:35;0.60;99.90
56771;DHT22;42641;59.794;17.616;2023-02-01T10:44:13;0.60;99.90
56771;DHT22;42641;59.794;17.616;2023-02-01T10:46:40;0.60;99.90
56771;DHT22;42641;59.794;17.616;2023-02-01T10:49:34;0.50;99.90
56771;DHT22;42641;59.794;17.616;2023-02-01T10:52:18;0.50;99.90
56771;DHT22;42641;59.794;17.616;2023-02-01T10:54:46;0.50;99.90
56771;DHT22;42641;59.794;17.616;2023-02-01T10:57:22;0.50;99.90
56771;DHT22;42641;59.794;17.616;2023-02-01T10:59:51;0.60;99.90
56771;DHT22;42641;59.794;17.616;2023-02-01T11:02:26;0.60;99.90
56771;DHT22;42641;59.794;17.616;2023-02-01T11:05:05;0.60;99.90
56771;DHT22;42641;59.794;17.616;2023-02-01T11:07:36;0.60;99.90
56771;DHT22;42641;59.794;17.616;2023-02-01T11:10:04;0.60;99.90
56771;DHT22;42641;59.794;17.616;2023-02-01T11:12:35;0.60;99.90
56771;DHT22;42641;59.794;17.616;2023-02-01T11:17:42;0.70;99.90
56771;DHT22;42641;59.794;17.616;2023-02-01T11:20:21;0.80;99.90
56771;DHT22;42641;59.794;17.616;2023-02-01T11:22:59;1.00;99.90
56771;DHT22;42641;59.794;17.616;2023-02-01T11:25:25;1.20;99.90
56771;DHT22;42641;59.794;17.616;2023-02-01T11:27:54;1.60;99.90
56771;DHT22;42641;59.794;17.616;2023-02-01T11:30:34;2.10;99.90
56771;DHT22;42641;59.794;17.616;2023-02-01T11:33:04;2.60;99.90
56771;DHT22;42641;59.794;17.616;2023-02-01T11:35:32;2.70;99.90
56771;DHT22;42641;59.794;17.616;2023-02-01T11:37:59;2.80;99.90
56771;DHT22;42641;59.794;17.616;2023-02-01T11:40:30;2.70;99.90
56771;DHT22;42641;59.794;17.616;2023-02-01T11:43:23;2.60;99.90
56771;DHT22;42641;59.794;17.616;2023-02-01T11:45:59;2.50;99.90
56771;DHT22;42641;59.794;17.616;2023-02-01T11:48:33;2.50;99.90
56771;DHT22;42641;59.794;17.616;2023-02-01T11:54:04;2.40;99.90
56771;DHT22;42641;59.794;17.616;2023-02-01T12:10:38;2.00;99.90
56771;DHT22;42641;59.794;17.616;2023-02-01T12:16:17;2.10;99.90
56771;DHT22;42641;59.794;17.616;2023-02-01T12:18:57;2.10;99.90
56771;DHT22;42641;59.794;17.616;2023-02-01T12:38:39;2.40;99.90
56771;DHT22;42641;59.794;17.616;2023-02-01T12:44:06;2.10;99.90
56771;DHT22;42641;59.794;17.616;2023-02-01T12:46:48;2.20;99.90
56771;DHT22;42641;59.794;17.616;2023-02-01T12:51:57;2.20;99.90
56771;DHT22;42641;59.794;17.616;2023-02-01T12:57:32;2.20;99.90
56771;DHT22;42641;59.794;17.616;2023-02-01T13:00:19;2.20;99.90
56771;DHT22;42641;59.794;17.616;2023-02-01T13:05:50;2.10;99.90
56771;DHT22;42641;59.794;17.616;2023-02-01T13:08:23;2.10;99.90
56771;DHT22;42641;59.794;17.616;2023-02-01T13:11:03;2.20;99.90
56771;DHT22;42641;59.794;17.616;2023-02-01T13:13:47;2.20;99.90
56771;DHT22;42641;59.794;17.616;2023-02-01T13:19:02;2.10;99.90
56771;DHT22;42641;59.794;17.616;2023-02-01T13:21:34;2.10;99.90
56771;DHT22;42641;59.794;17.616;2023-02-01T13:24:01;2.00;99.90
56771;DHT22;42641;59.794;17.616;2023-02-01T13:26:28;2.10;99.90
56771;DHT22;42641;59.794;17.616;2023-02-01T13:29:06;2.00;99.90
56771;DHT22;42641;59.794;17.616;2023-02-01T13:34:57;2.00;99.90
56771;DHT22;42641;59.794;17.616;2023-02-01T13:37:50;2.10;99.90
56771;DHT22;42641;59.794;17.616;2023-02-01T13:43:11;2.00;99.90
56771;DHT22;42641;59.794;17.616;2023-02-01T13:46:04;2.00;99.90
56771;DHT22;42641;59.794;17.616;2023-02-01T13:48:45;2.00;99.90
56771;DHT22;42641;59.794;17.616;2023-02-01T13:51:13;1.90;99.90
56771;DHT22;42641;59.794;17.616;2023-02-01T13:53:45;1.90;99.90
56771;DHT22;42641;59.794;17.616;2023-02-01T13:56:22;1.90;99.90
56771;DHT22;42641;59.794;17.616;2023-02-01T13:58:50;1.90;99.90
56771;DHT22;42641;59.794;17.616;2023-02-01T14:03:57;1.90;99.90
56771;DHT22;42641;59.794;17.616;2023-02-01T14:09:18;1.90;99.90
56771;DHT22;42641;59.794;17.616;2023-02-01T14:11:53;1.90;99.90
56771;DHT22;42641;59.794;17.616;2023-02-01T14:19:29;1.90;99.90
56771;DHT22;42641;59.794;17.616;2023-02-01T14:24:56;1.80;99.90
56771;DHT22;42641;59.794;17.616;2023-02-01T14:27:28;1.80;99.90
56771;DHT22;42641;59.794;17.616;2023-02-01T14:30:01;1.80;99.90
56771;DHT22;42641;59.794;17.616;2023-02-01T14:32:39;1.80;99.90
56771;DHT22;42641;59.794;17.616;2023-02-01T14:35:20;1.80;99.90
56771;DHT22;42641;59.794;17.616;2023-02-01T14:37:52;1.70;99.90
56771;DHT22;42641;59.794;17.616;2023-02-01T14:40:24;1.70;99.90
56771;DHT22;42641;59.794;17.616;2023-02-01T14:42:52;1.70;99.90
56771;DHT22;42641;59.794;17.616;2023-02-01T14:47:53;1.60;99.90
56771;DHT22;42641;59.794;17.616;2023-02-01T14:55:44;1.50;99.90
56771;DHT22;42641;59.794;17.616;2023-02-01T15:00:54;1.40;99.90
56771;DHT22;42641;59.794;17.616;2023-02-01T15:06:32;1.30;99.90
56771;DHT22;42641;59.794;17.616;2023-02-01T15:09:18;1.30;99.90
56771;DHT22;42641;59.794;17.616;2023-02-01T15:12:18;1.30;99.90
56771;DHT22;42641;59.794;17.616;2023-02-01T15:15:17;1.20;99.90
56771;DHT22;42641;59.794;17.616;2023-02-01T15:17:59;1.20;99.90
56771;DHT22;42641;59.794;17.616;2023-02-01T15:20:30;1.20;99.90
56771;DHT22;42641;59.794;17.616;2023-02-01T15:23:02;1.20;99.90
56771;DHT22;42641;59.794;17.616;2023-02-01T15:25:31;1.20;99.90
56771;DHT22;42641;59.794;17.616;2023-02-01T15:27:58;1.30;99.90
56771;DHT22;42641;59.794;17.616;2023-02-01T15:30:27;1.30;99.90
56771;DHT22;42641;59.794;17.616;2023-02-01T15:33:15;1.30;99.90
56771;DHT22;42641;59.794;17.616;2023-02-01T15:35:50;1.40;99.90
56771;DHT22;42641;59.794;17.616;2023-02-01T15:41:15;1.30;99.90
56771;DHT22;42641;59.794;17.616;2023-02-01T15:43:46;1.30;99.90
56771;DHT22;42641;59.794;17.616;2023-02-01T15:46:16;1.30;99.90
56771;DHT22;42641;59.794;17.616;2023-02-01T15:48:48;1.20;99.90
56771;DHT22;42641;59.794;17.616;2023-02-01T15:51:22;1.30;99.90
56771;DHT22;42641;59.794;17.616;2023-02-01T15:54:13;1.30;99.90
56771;DHT22;42641;59.794;17.616;2023-02-01T15:56:50;1.30;99.90
56771;DHT22;42641;59.794;17.616;2023-02-01T15:59:41;1.20;99.90
56771;DHT22;42641;59.794;17.616;2023-02-01T16:02:37;1.20;99.90
56771;DHT22;42641;59.794;17.616;2023-02-01T16:05:33;1.10;99.90
56771;DHT22;42641;59.794;17.616;2023-02-01T16:08:08;1.10;99.90
56771;DHT22;42641;59.794;17.616;2023-02-01T16:10:43;1.00;99.90
56771;DHT22;42641;59.794;17.616;2023-02-01T16:13:10;1.00;99.90
56771;DHT22;42641;59.794;17.616;2023-02-01T16:15:37;1.00;99.90
56771;DHT22;42641;59.794;17.616;2023-02-01T16:18:05;1.00;99.90
56771;DHT22;42641;59.794;17.616;2023-02-01T16:20:34;0.90;99.90
56771;DHT22;42641;59.794;17.616;2023-02-01T16:23:02;0.90;99.90
56771;DHT22;42641;59.794;17.616;2023-02-01T16:25:29;0.90;99.90
56771;DHT22;42641;59.794;17.616;2023-02-01T16:27:56;0.80;99.90
56771;DHT22;42641;59.794;17.616;2023-02-01T16:30:22;0.80;99.90
56771;DHT22;42641;59.794;17.616;2023-02-01T16:32:54;0.80;99.90
56771;DHT22;42641;59.794;17.616;2023-02-01T16:35:25;0.80;99.90
56771;DHT22;42641;59.794;17.616;2023-02-01T16:37:53;0.80;99.90
56771;DHT22;42641;59.794;17.616;2023-02-01T16:40:20;0.80;99.90
56771;DHT22;42641;59.794;17.616;2023-02-01T16:42:50;0.80;99.90
56771;DHT22;42641;59.794;17.616;2023-02-01T16:45:17;0.80;99.90
56771;DHT22;42641;59.794;17.616;2023-02-01T16:47:49;0.80;99.90
56771;DHT22;42641;59.794;17.616;2023-02-01T16:50:21;0.80;99.90
56771;DHT22;42641;59.794;17.616;2023-02-01T16:52:48;0.80;99.90
56771;DHT22;42641;59.794;17.616;2023-02-01T16:55:17;0.80;99.90
56771;DHT22;42641;59.794;17.616;2023-02-01T16:57:44;0.80;99.90
56771;DHT22;42641;59.794;17.616;2023-02-01T17:00:11;0.80;99.90
56771;DHT22;42641;59.794;17.616;2023-02-01T17:02:38;0.80;99.90
56771;DHT22;42641;59.794;17.616;2023-02-01T17:05:05;0.80;99.90
56771;DHT22;42641;59.794;17.616;2023-02-01T17:07:32;0.90;99.90
56771;DHT22;42641;59.794;17.616;2023-02-01T17:09:58;0.90;99.90
56771;DHT22;42641;59.794;17.616;2023-02-01T17:12:28;1.00;99.90
56771;DHT22;42641;59.794;17.616;2023-02-01T17:14:56;1.00;99.90
56771;DHT22;42641;59.794;17.616;2023-02-01T17:17:29;1.00;99.90
56771;DHT22;42641;59.794;17.616;2023-02-01T17:19:57;0.90;99.90
56771;DHT22;42641;59.794;17.616;2023-02-01T17:22:23;0.90;99.90
56771;DHT22;42641;59.794;17.616;2023-02-01T17:24:49;0.90;99.90
56771;DHT22;42641;59.794;17.616;2023-02-01T17:27:17;0.90;99.90
56771;DHT22;42641;59.794;17.616;2023-02-01T17:29:44;0.90;99.90
56771;DHT22;42641;59.794;17.616;2023-02-01T17:32:19;0.90;99.90
56771;DHT22;42641;59.794;17.616;2023-02-01T17:34:47;0.90;99.90
56771;DHT22;42641;59.794;17.616;2023-02-01T17:37:30;0.90;99.90
56771;DHT22;42641;59.794;17.616;2023-02-01T17:39:57;0.90;99.90
56771;DHT22;42641;59.794;17.616;2023-02-01T17:42:25;0.80;99.90
56771;DHT22;42641;59.794;17.616;2023-02-01T17:44:59;0.90;99.90
56771;DHT22;42641;59.794;17.616;2023-02-01T17:47:26;0.90;99.90
56771;DHT22;42641;59.794;17.616;2023-02-01T17:49:52;0.80;99.90
56771;DHT22;42641;59.794;17.616;2023-02-01T17:52:22;0.70;99.90
56771;DHT22;42641;59.794;17.616;2023-02-01T17:54:49;0.70;99.90
56771;DHT22;42641;59.794;17.616;2023-02-01T17:57:19;0.70;99.90
56771;DHT22;42641;59.794;17.616;2023-02-01T17:59:46;0.70;99.90
56771;DHT22;42641;59.794;17.616;2023-02-01T18:02:30;0.70;99.90
56771;DHT22;42641;59.794;17.616;2023-02-01T18:04:56;0.70;99.90
56771;DHT22;42641;59.794;17.616;2023-02-01T18:07:23;0.70;99.90
56771;DHT22;42641;59.794;17.616;2023-02-01T18:09:50;0.80;99.90
56771;DHT22;42641;59.794;17.616;2023-02-01T18:12:21;0.80;99.90